createdAt,value
2023-02-19T00:01:50.373Z,3.08
2023-02-19T00:04:21.847Z,3.75
2023-02-19T00:06:50.197Z,5.55
2023-02-19T00:09:19.971Z,2.80
2023-02-19T00:11:48.459Z,2.67
2023-02-19T00:14:19.240Z,1.40
2023-02-19T00:16:47.448Z,6.55
2023-02-19T00:19:17.428Z,6.50
2023-02-19T00:21:47.358Z,6.90
2023-02-19T00:24:16.311Z,3.67
2023-02-19T00:26:45.597Z,5.90
2023-02-19T00:29:15.126Z,2.85
2023-02-19T00:31:43.899Z,3.95
2023-02-19T00:34:13.027Z,3.05
2023-02-19T00:36:42.404Z,1.05
2023-02-19T00:39:15.240Z,2.92
2023-02-19T00:41:43.235Z,2.05
2023-02-19T00:44:12.454Z,1.38
2023-02-19T00:46:42.802Z,3.63
2023-02-19T00:49:17.442Z,3.13
2023-02-19T00:51:45.608Z,0.95
2023-02-19T00:54:15.251Z,1.25
2023-02-19T00:56:43.120Z,2.60
2023-02-19T00:59:11.023Z,5.97
2023-02-19T01:01:39.285Z,5.25
2023-02-19T01:04:07.285Z,5.72
2023-02-19T01:06:35.644Z,10.70
2023-02-19T01:09:04.010Z,2.85
2023-02-19T01:11:33.553Z,3.83
2023-02-19T01:14:03.467Z,10.35
2023-02-19T01:16:32.481Z,23.83
2023-02-19T01:19:00.661Z,19.38
2023-02-19T01:21:30.131Z,15.52
2023-02-19T01:23:58.941Z,36.67
2023-02-19T01:26:30.287Z,98.85
2023-02-19T01:28:59.838Z,106.85
2023-02-19T01:31:28.214Z,12.75
2023-02-19T01:33:58.296Z,5.38
2023-02-19T01:36:27.087Z,5.65
2023-02-19T01:38:55.533Z,3.30
2023-02-19T01:41:25.690Z,6.82
2023-02-19T01:44:01.544Z,1.38
2023-02-19T01:46:32.651Z,59.08
2023-02-19T01:49:07.693Z,4.85
2023-02-19T01:51:37.654Z,6.40
2023-02-19T01:54:10.320Z,0.40
2023-02-19T01:56:40.604Z,2.50
2023-02-19T01:59:10.485Z,0.45
2023-02-19T02:01:40.356Z,1.85
2023-02-19T02:04:10.923Z,1.35
2023-02-19T02:06:45.794Z,2.50
2023-02-19T02:09:32.332Z,0.00
2023-02-19T02:12:00.302Z,0.00
2023-02-19T02:14:34.804Z,0.00
2023-02-19T02:17:14.820Z,0.32
2023-02-19T02:20:12.540Z,0.00
2023-02-19T02:22:47.212Z,0.40
2023-02-19T02:25:45.428Z,0.00
2023-02-19T02:28:35.110Z,0.85
2023-02-19T02:31:09.046Z,1.98
2023-02-19T02:33:42.335Z,0.10
2023-02-19T02:36:17.119Z,0.00
2023-02-19T02:38:48.272Z,0.20
2023-02-19T02:41:17.412Z,1.05
2023-02-19T02:43:45.251Z,1.05
2023-02-19T02:46:20.116Z,0.82
2023-02-19T02:48:53.951Z,1.40
2023-02-19T02:51:27.529Z,1.75
2023-02-19T02:54:26.160Z,0.73
2023-02-19T02:56:57.569Z,2.58
2023-02-19T02:59:33.297Z,1.90
2023-02-19T03:02:11.833Z,4.07
2023-02-19T03:05:06.312Z,1.98
2023-02-19T03:07:40.091Z,4.28
2023-02-19T03:10:11.632Z,3.50
2023-02-19T03:12:59.665Z,5.88
2023-02-19T03:15:50.677Z,4.88
2023-02-19T03:18:38.532Z,10.27
2023-02-19T03:21:08.727Z,4.60
2023-02-19T03:23:57.711Z,4.00
2023-02-19T03:26:27.334Z,1.95
2023-02-19T03:29:15.499Z,0.00
2023-02-19T03:31:48.783Z,0.17
2023-02-19T03:34:26.057Z,0.10
2023-02-19T03:37:01.967Z,0.10
2023-02-19T03:39:30.673Z,0.10
2023-02-19T03:42:07.882Z,0.00
2023-02-19T03:44:45.371Z,0.43
2023-02-19T03:47:19.195Z,0.00
2023-02-19T03:49:54.014Z,0.00
2023-02-19T03:52:31.452Z,0.00
2023-02-19T03:55:04.342Z,0.00
2023-02-19T03:57:40.522Z,0.15
2023-02-19T04:00:14.841Z,0.00
2023-02-19T04:02:49.816Z,0.00
2023-02-19T04:05:22.491Z,0.00
2023-02-19T04:07:53.281Z,0.10
2023-02-19T04:10:26.812Z,1.48
2023-02-19T04:13:00.476Z,0.05
2023-02-19T04:15:33.081Z,3.00
2023-02-19T04:18:06.137Z,0.00
2023-02-19T04:20:40.477Z,0.38
2023-02-19T04:23:08.729Z,0.00
2023-02-19T04:25:39.482Z,0.20
2023-02-19T04:28:09.036Z,0.22
2023-02-19T04:30:37.172Z,0.20
2023-02-19T04:33:05.182Z,0.00
2023-02-19T04:35:33.087Z,0.20
2023-02-19T04:38:02.408Z,0.00
2023-02-19T04:40:30.390Z,0.00
2023-02-19T04:42:58.219Z,0.40
2023-02-19T04:45:26.191Z,0.00
2023-02-19T04:47:54.087Z,0.00
2023-02-19T04:50:23.269Z,0.00
2023-02-19T04:52:51.539Z,0.40
2023-02-19T04:55:20.903Z,0.00
2023-02-19T04:57:48.795Z,0.00
2023-02-19T05:00:16.916Z,0.00
2023-02-19T05:02:44.895Z,0.00
2023-02-19T05:05:12.962Z,0.00
2023-02-19T05:07:40.812Z,0.00
2023-02-19T05:10:09.295Z,0.65
2023-02-19T05:12:38.680Z,0.00
2023-02-19T05:15:07.050Z,0.00
2023-02-19T05:17:35.575Z,2.67
2023-02-19T05:20:03.702Z,0.00
2023-02-19T05:22:31.761Z,0.05
2023-02-19T05:24:59.687Z,0.00
2023-02-19T05:27:27.601Z,0.00
2023-02-19T05:29:56.861Z,0.00
2023-02-19T05:32:24.699Z,0.00
2023-02-19T05:34:52.818Z,0.00
2023-02-19T05:37:20.661Z,0.00
2023-02-19T05:39:50.063Z,0.00
2023-02-19T05:42:18.151Z,0.10
2023-02-19T05:44:46.073Z,0.03
2023-02-19T05:47:15.670Z,0.00
2023-02-19T05:49:43.784Z,0.00
2023-02-19T05:52:12.154Z,0.70
2023-02-19T05:54:40.251Z,0.20
2023-02-19T05:57:08.127Z,0.00
2023-02-19T05:59:36.087Z,0.00
2023-02-19T06:02:04.133Z,0.00
2023-02-19T06:04:33.550Z,0.65
2023-02-19T06:07:01.632Z,0.00
2023-02-19T06:09:29.678Z,0.00
2023-02-19T06:11:57.563Z,0.00
2023-02-19T06:14:25.558Z,0.00
2023-02-19T06:16:53.579Z,1.30
2023-02-19T06:19:21.689Z,0.00
2023-02-19T06:21:52.550Z,0.00
2023-02-19T06:24:20.591Z,0.00
2023-02-19T06:26:48.534Z,0.00
2023-02-19T06:29:17.907Z,0.00
2023-02-19T06:31:46.548Z,1.17
2023-02-19T06:34:14.529Z,0.03
2023-02-19T06:36:42.577Z,0.00
2023-02-19T06:39:12.091Z,0.20
2023-02-19T06:41:39.914Z,1.60
2023-02-19T06:44:07.939Z,0.28
2023-02-19T06:46:36.107Z,0.13
2023-02-19T06:49:05.460Z,0.00
2023-02-19T06:51:33.568Z,3.45
2023-02-19T06:54:03.337Z,1.08
2023-02-19T06:56:34.565Z,0.00
2023-02-19T06:59:04.669Z,2.08
2023-02-19T07:01:34.325Z,0.32
2023-02-19T07:04:02.628Z,0.00
2023-02-19T07:06:31.017Z,0.10
2023-02-19T07:09:00.173Z,0.00
2023-02-19T07:11:30.860Z,0.10
2023-02-19T07:14:02.331Z,0.03
2023-02-19T07:16:30.702Z,0.00
2023-02-19T07:19:00.043Z,0.52
2023-02-19T07:21:29.036Z,0.43
2023-02-19T07:23:57.765Z,0.00
2023-02-19T07:26:26.055Z,0.05
2023-02-19T07:28:54.414Z,0.10
2023-02-19T07:31:25.067Z,0.68
2023-02-19T07:33:53.276Z,1.45
2023-02-19T07:36:23.509Z,0.82
2023-02-19T07:38:55.349Z,0.15
2023-02-19T07:41:24.393Z,0.00
2023-02-19T07:43:52.411Z,2.42
2023-02-19T07:46:24.060Z,0.40
2023-02-19T07:48:52.309Z,0.10
2023-02-19T07:51:21.606Z,0.40
2023-02-19T07:53:51.450Z,0.22
2023-02-19T07:56:20.169Z,0.88
2023-02-19T07:58:48.256Z,1.52
2023-02-19T08:01:40.861Z,0.38
2023-02-19T08:04:10.864Z,1.38
2023-02-19T08:06:38.993Z,2.88
2023-02-19T08:09:07.319Z,0.30
2023-02-19T08:11:52.775Z,0.75
2023-02-19T08:14:23.921Z,0.45
2023-02-19T08:16:52.428Z,1.67
2023-02-19T08:19:22.520Z,0.43
2023-02-19T08:21:51.102Z,1.10
2023-02-19T08:24:18.981Z,1.20
2023-02-19T08:26:46.946Z,2.00
2023-02-19T08:29:14.932Z,1.58
2023-02-19T08:31:43.392Z,1.70
2023-02-19T08:34:11.790Z,0.50
2023-02-19T08:36:41.270Z,0.57
2023-02-19T08:39:10.357Z,0.32
2023-02-19T08:41:38.792Z,0.65
2023-02-19T08:44:06.826Z,0.88
2023-02-19T08:46:35.112Z,0.38
2023-02-19T08:49:03.136Z,0.40
2023-02-19T08:51:31.247Z,1.98
2023-02-19T08:54:03.595Z,0.50
2023-02-19T08:56:31.966Z,0.52
2023-02-19T08:59:00.206Z,0.77
2023-02-19T09:01:28.319Z,0.82
2023-02-19T09:03:56.237Z,4.50
2023-02-19T09:06:24.151Z,2.13
2023-02-19T09:08:52.094Z,2.33
2023-02-19T09:11:21.924Z,3.53
2023-02-19T09:13:49.952Z,2.70
2023-02-19T09:16:17.775Z,2.20
2023-02-19T09:18:46.801Z,3.60
2023-02-19T09:21:14.794Z,3.83
2023-02-19T09:23:42.652Z,2.85
2023-02-19T09:26:11.674Z,8.15
2023-02-19T09:28:41.958Z,3.60
2023-02-19T09:31:13.011Z,8.05
2023-02-19T09:33:44.563Z,4.90
2023-02-19T09:36:12.827Z,3.38
2023-02-19T09:38:41.195Z,5.13
2023-02-19T09:41:15.016Z,6.25
2023-02-19T09:43:45.611Z,6.82
2023-02-19T09:46:25.099Z,4.55
2023-02-19T09:48:54.394Z,3.75
2023-02-19T09:51:24.046Z,8.48
2023-02-19T09:53:53.440Z,4.97
2023-02-19T09:56:21.543Z,4.45
2023-02-19T09:58:53.905Z,2.88
2023-02-19T10:01:26.010Z,3.83
2023-02-19T10:03:54.013Z,2.20
2023-02-19T10:06:24.071Z,1.10
2023-02-19T10:08:57.083Z,1.75
2023-02-19T10:11:27.493Z,4.63
2023-02-19T10:14:05.439Z,1.50
2023-02-19T10:16:34.928Z,9.05
2023-02-19T10:19:03.053Z,1.90
2023-02-19T10:21:31.427Z,0.38
2023-02-19T10:24:03.600Z,1.20
2023-02-19T10:26:35.236Z,1.00
2023-02-19T10:29:05.231Z,1.52
2023-02-19T10:31:34.499Z,2.10
2023-02-19T10:34:04.465Z,0.77
2023-02-19T10:36:34.958Z,0.30
2023-02-19T10:39:07.200Z,6.75
2023-02-19T10:41:36.092Z,3.42
2023-02-19T10:44:09.032Z,3.63
2023-02-19T10:46:43.106Z,1.45
2023-02-19T10:49:24.196Z,0.10
2023-02-19T10:51:54.680Z,0.73
2023-02-19T10:54:31.222Z,2.10
2023-02-19T10:57:29.837Z,0.43
2023-02-19T11:00:02.373Z,0.10
2023-02-19T11:02:31.819Z,2.90
2023-02-19T11:05:18.119Z,0.35
2023-02-19T11:07:48.689Z,0.55
2023-02-19T11:10:29.741Z,0.63
2023-02-19T11:13:00.158Z,1.95
2023-02-19T11:15:32.165Z,1.38
2023-02-19T11:18:04.306Z,1.98
2023-02-19T11:20:33.116Z,0.50
2023-02-19T11:23:06.312Z,0.95
2023-02-19T11:25:34.935Z,4.10
2023-02-19T11:28:07.926Z,5.93
2023-02-19T11:30:40.638Z,0.52
2023-02-19T11:33:28.201Z,4.60
2023-02-19T11:36:17.931Z,2.80
2023-02-19T11:38:45.857Z,0.30
2023-02-19T11:41:24.041Z,0.10
2023-02-19T11:44:06.547Z,0.43
2023-02-19T11:46:43.975Z,4.00
2023-02-19T11:49:26.395Z,0.90
2023-02-19T11:52:07.979Z,0.98
2023-02-19T11:54:50.933Z,1.10
2023-02-19T11:57:35.940Z,1.25
2023-02-19T12:00:19.569Z,0.65
2023-02-19T12:03:05.699Z,1.25
2023-02-19T12:05:49.790Z,0.73
2023-02-19T12:08:53.034Z,4.10
2023-02-19T12:11:41.957Z,0.85
2023-02-19T12:14:27.300Z,0.30
2023-02-19T12:17:04.181Z,1.38
2023-02-19T12:19:44.990Z,0.15
2023-02-19T12:22:29.563Z,0.43
2023-02-19T12:25:25.721Z,2.85
2023-02-19T12:28:09.990Z,5.65
2023-02-19T12:30:57.437Z,1.08
2023-02-19T12:33:45.731Z,1.85
2023-02-19T12:36:25.230Z,3.20
2023-02-19T12:39:01.610Z,0.00
2023-02-19T12:41:43.364Z,0.25
2023-02-19T12:44:16.719Z,0.63
2023-02-19T12:46:48.700Z,1.88
2023-02-19T12:49:24.520Z,1.33
2023-02-19T12:51:58.198Z,2.75
2023-02-19T12:54:29.136Z,0.93
2023-02-19T12:57:02.850Z,3.15
2023-02-19T12:59:34.734Z,0.63
2023-02-19T13:02:13.260Z,6.10
2023-02-19T13:04:47.458Z,7.03
2023-02-19T13:07:21.740Z,1.88
2023-02-19T13:09:54.869Z,2.88
2023-02-19T13:12:27.248Z,1.38
2023-02-19T13:14:59.924Z,0.30
2023-02-19T13:17:32.676Z,1.05
2023-02-19T13:20:09.537Z,0.43
2023-02-19T13:23:01.515Z,1.50
2023-02-19T13:25:45.149Z,2.05
2023-02-19T13:28:27.031Z,0.22
2023-02-19T13:31:08.614Z,0.25
2023-02-19T13:33:48.458Z,0.25
2023-02-19T13:36:20.868Z,2.20
2023-02-19T13:38:51.258Z,0.10
2023-02-19T13:41:22.584Z,0.98
2023-02-19T13:43:58.388Z,0.08
2023-02-19T13:46:34.249Z,3.00
2023-02-19T13:49:38.413Z,0.10
2023-02-19T13:52:36.810Z,2.17
2023-02-19T13:55:42.596Z,0.57
2023-02-19T13:58:54.211Z,2.28
2023-02-19T14:02:12.776Z,0.43
2023-02-19T14:04:51.261Z,0.55
2023-02-19T14:07:55.121Z,0.63
2023-02-19T14:10:58.578Z,0.47
2023-02-19T14:14:11.084Z,0.20
2023-02-19T14:16:57.085Z,1.35
2023-02-19T14:19:54.670Z,0.65
2023-02-19T14:23:05.485Z,2.10
2023-02-19T14:25:49.750Z,3.92
2023-02-19T14:28:30.129Z,0.80
2023-02-19T14:31:00.995Z,1.63
2023-02-19T14:33:32.531Z,0.63
2023-02-19T14:36:07.140Z,0.52
2023-02-19T14:38:40.439Z,3.63
2023-02-19T14:41:12.617Z,1.67
2023-02-19T14:43:42.364Z,0.00
2023-02-19T14:46:19.831Z,2.40
2023-02-19T14:48:50.407Z,0.45
2023-02-19T14:51:28.070Z,0.65
2023-02-19T14:53:59.645Z,1.25
2023-02-19T14:56:33.277Z,0.28
2023-02-19T14:59:29.287Z,1.75
2023-02-19T15:01:59.937Z,0.40
2023-02-19T15:04:29.862Z,2.75
2023-02-19T15:07:03.528Z,1.38
2023-02-19T15:09:34.370Z,1.50
2023-02-19T15:12:04.084Z,1.15
2023-02-19T15:14:34.085Z,0.40
2023-02-19T15:17:05.157Z,7.18
2023-02-19T15:19:36.083Z,4.75
2023-02-19T15:22:05.449Z,0.65
2023-02-19T15:24:33.612Z,0.43
2023-02-19T15:27:01.894Z,0.25
2023-02-19T15:29:30.286Z,1.35
2023-02-19T15:31:59.472Z,0.30
2023-02-19T15:34:30.232Z,0.45
2023-02-19T15:37:01.274Z,0.30
2023-02-19T15:39:35.909Z,3.30
2023-02-19T15:42:06.623Z,0.45
2023-02-19T15:44:49.229Z,0.43
2023-02-19T15:47:27.250Z,0.28
2023-02-19T15:50:00.469Z,0.55
2023-02-19T15:52:37.224Z,1.38
2023-02-19T15:55:20.488Z,12.18
2023-02-19T15:57:53.687Z,0.35
2023-02-19T16:00:28.708Z,4.22
2023-02-19T16:02:57.490Z,1.33
2023-02-19T16:05:27.814Z,1.80
2023-02-19T16:08:17.508Z,4.32
2023-02-19T16:11:01.641Z,0.95
2023-02-19T16:13:31.660Z,1.40
2023-02-19T16:16:05.039Z,1.27
2023-02-19T16:18:33.408Z,0.88
2023-02-19T16:21:02.316Z,1.98
2023-02-19T16:23:31.278Z,1.13
2023-02-19T16:26:04.459Z,1.13
2023-02-19T16:28:38.235Z,3.83
2023-02-19T16:31:12.245Z,4.00
2023-02-19T16:33:42.874Z,0.38
2023-02-19T16:36:33.139Z,1.27
2023-02-19T16:39:05.194Z,2.50
2023-02-19T16:41:35.314Z,4.22
2023-02-19T16:44:31.950Z,1.50
2023-02-19T16:47:05.156Z,1.52
2023-02-19T16:49:33.362Z,5.47
2023-02-19T16:52:04.270Z,1.90
2023-02-19T16:54:32.778Z,1.00
2023-02-19T16:57:02.133Z,2.42
2023-02-19T16:59:30.406Z,1.33
2023-02-19T17:02:01.102Z,1.20
2023-02-19T17:04:29.565Z,1.25
2023-02-19T17:07:00.622Z,3.95
2023-02-19T17:09:28.564Z,4.32
2023-02-19T17:11:58.903Z,1.67
2023-02-19T17:14:28.510Z,0.55
2023-02-19T17:16:56.481Z,2.30
2023-02-19T17:19:24.544Z,1.52
2023-02-19T17:21:52.494Z,1.50
2023-02-19T17:24:20.376Z,0.60
2023-02-19T17:26:48.350Z,4.38
2023-02-19T17:29:21.428Z,1.45
2023-02-19T17:31:52.665Z,1.17
2023-02-19T17:34:20.742Z,2.53
2023-02-19T17:36:49.476Z,3.38
2023-02-19T17:39:19.461Z,6.60
2023-02-19T17:41:47.409Z,0.98
2023-02-19T17:44:15.380Z,1.95
2023-02-19T17:46:43.414Z,4.13
2023-02-19T17:49:14.387Z,5.07
2023-02-19T17:51:42.457Z,5.70
2023-02-19T17:54:10.489Z,3.83
2023-02-19T17:56:43.144Z,9.68
2023-02-19T17:59:11.606Z,3.28
2023-02-19T18:01:39.810Z,5.57
2023-02-19T18:04:07.796Z,9.48
2023-02-19T18:06:37.055Z,9.40
2023-02-19T18:09:05.733Z,8.90
2023-02-19T18:11:33.935Z,4.05
2023-02-19T18:14:02.645Z,3.20
2023-02-19T18:16:30.533Z,4.10
2023-02-19T18:19:01.464Z,1.80
2023-02-19T18:21:29.420Z,1.85
2023-02-19T18:23:58.593Z,3.03
2023-02-19T18:26:28.471Z,3.35
2023-02-19T18:28:56.932Z,4.18
2023-02-19T18:31:25.051Z,2.05
2023-02-19T18:33:53.319Z,2.10
2023-02-19T18:36:21.287Z,4.43
2023-02-19T18:38:51.805Z,5.80
2023-02-19T18:41:21.679Z,3.45
2023-02-19T18:43:50.049Z,2.28
2023-02-19T18:46:21.687Z,3.42
2023-02-19T18:48:51.630Z,6.82
2023-02-19T18:51:27.958Z,5.10
2023-02-19T18:53:55.831Z,2.22
2023-02-19T18:56:29.472Z,3.92
2023-02-19T18:59:00.458Z,10.35
2023-02-19T19:01:28.589Z,1.92
2023-02-19T19:03:56.637Z,1.85
2023-02-19T19:06:25.006Z,13.07
2023-02-19T19:08:53.030Z,9.38
2023-02-19T19:11:27.616Z,5.63
2023-02-19T19:13:58.418Z,7.28
2023-02-19T19:16:29.232Z,3.97
2023-02-19T19:18:58.248Z,8.18
2023-02-19T19:21:26.363Z,3.22
2023-02-19T19:23:56.190Z,6.05
2023-02-19T19:26:26.360Z,4.50
2023-02-19T19:28:57.130Z,2.67
2023-02-19T19:31:34.293Z,3.28
2023-02-19T19:34:02.494Z,5.90
2023-02-19T19:36:32.515Z,2.20
2023-02-19T19:39:02.640Z,2.65
2023-02-19T19:41:34.098Z,3.08
2023-02-19T19:44:04.271Z,1.50
2023-02-19T19:46:32.483Z,2.33
2023-02-19T19:49:03.414Z,4.43
2023-02-19T19:51:35.347Z,7.65
2023-02-19T19:54:04.381Z,1.42
2023-02-19T19:56:33.844Z,2.60
2023-02-19T19:59:01.722Z,4.88
2023-02-19T20:01:29.801Z,2.05
2023-02-19T20:03:57.899Z,2.35
2023-02-19T20:06:28.764Z,3.25
2023-02-19T20:08:59.639Z,2.83
2023-02-19T20:11:27.983Z,2.72
2023-02-19T20:13:57.705Z,2.65
2023-02-19T20:16:27.155Z,2.92
2023-02-19T20:18:58.283Z,4.75
2023-02-19T20:21:26.329Z,4.30
2023-02-19T20:23:54.524Z,4.40
2023-02-19T20:26:24.640Z,4.05
2023-02-19T20:28:55.105Z,4.85
2023-02-19T20:31:30.234Z,2.58
2023-02-19T20:33:58.475Z,2.03
2023-02-19T20:36:28.473Z,2.08
2023-02-19T20:38:56.910Z,1.77
2023-02-19T20:41:24.811Z,1.83
2023-02-19T20:43:52.676Z,2.80
2023-02-19T20:46:20.843Z,3.17
2023-02-19T20:48:51.876Z,2.85
2023-02-19T20:51:20.054Z,9.27
2023-02-19T20:53:48.617Z,1.00
2023-02-19T20:56:16.916Z,2.63
2023-02-19T20:58:46.326Z,5.68
2023-02-19T21:01:14.497Z,3.03
2023-02-19T21:03:42.396Z,1.35
2023-02-19T21:06:13.875Z,3.60
2023-02-19T21:08:41.952Z,1.88
2023-02-19T21:11:10.437Z,1.52
2023-02-19T21:13:38.484Z,2.88
2023-02-19T21:16:08.341Z,3.83
2023-02-19T21:18:36.226Z,3.53
2023-02-19T21:21:04.428Z,2.00
2023-02-19T21:23:33.802Z,2.55
2023-02-19T21:26:03.516Z,2.17
2023-02-19T21:28:31.491Z,3.47
2023-02-19T21:30:59.446Z,1.73
2023-02-19T21:33:27.401Z,2.05
2023-02-19T21:35:57.467Z,2.50
2023-02-19T21:38:25.383Z,3.50
2023-02-19T21:40:54.608Z,2.50
2023-02-19T21:43:22.548Z,1.17
2023-02-19T21:45:50.564Z,1.25
2023-02-19T21:48:18.619Z,1.38
2023-02-19T21:50:46.499Z,5.65
2023-02-19T21:53:14.859Z,3.05
2023-02-19T21:55:57.520Z,4.07
2023-02-19T21:58:27.867Z,3.03
2023-02-19T22:00:56.507Z,3.42
2023-02-19T22:03:24.353Z,2.70
2023-02-19T22:05:52.445Z,2.72
2023-02-19T22:08:20.293Z,2.33
2023-02-19T22:10:48.426Z,2.85
2023-02-19T22:13:16.307Z,3.97
2023-02-19T22:15:45.505Z,1.10
2023-02-19T22:18:14.209Z,1.95
2023-02-19T22:20:42.127Z,3.28
2023-02-19T22:23:09.979Z,2.53
2023-02-19T22:25:37.776Z,2.78
2023-02-19T22:28:07.603Z,4.63
2023-02-19T22:30:35.544Z,4.05
2023-02-19T22:33:05.204Z,2.95
2023-02-19T22:35:33.288Z,1.20
2023-02-19T22:38:01.452Z,3.92
2023-02-19T22:40:29.442Z,4.32
2023-02-19T22:42:57.362Z,5.13
2023-02-19T22:45:25.568Z,5.28
2023-02-19T22:47:55.494Z,6.05
2023-02-19T22:50:26.437Z,2.78
2023-02-19T22:52:55.378Z,2.13
2023-02-19T22:55:23.263Z,5.28
2023-02-19T22:57:51.148Z,3.17
2023-02-19T23:00:20.981Z,3.28
2023-02-19T23:02:48.836Z,5.13
2023-02-19T23:05:17.411Z,3.47
2023-02-19T23:07:47.195Z,2.80
2023-02-19T23:10:15.207Z,3.33
2023-02-19T23:12:43.377Z,2.30
2023-02-19T23:15:12.071Z,2.70
2023-02-19T23:17:39.894Z,6.03
2023-02-19T23:20:09.131Z,7.65
2023-02-19T23:22:36.904Z,4.53
2023-02-19T23:25:06.871Z,3.92
2023-02-19T23:27:34.893Z,3.03
2023-02-19T23:30:03.096Z,2.13
2023-02-19T23:32:31.034Z,2.25
2023-02-19T23:34:59.054Z,3.47
2023-02-19T23:37:27.073Z,1.95
2023-02-19T23:39:55.111Z,3.00
2023-02-19T23:42:24.384Z,2.88
2023-02-19T23:44:52.449Z,3.92
2023-02-19T23:47:21.880Z,3.97
2023-02-19T23:49:49.784Z,3.72
2023-02-19T23:52:17.849Z,3.40
2023-02-19T23:54:45.930Z,2.55
2023-02-19T23:57:15.119Z,2.08
2023-02-19T23:59:44.788Z,3.42
